createdAt,value
2023-02-27T00:00:29.535Z,23.00
2023-02-27T00:01:02.177Z,22.00
2023-02-27T00:01:35.110Z,22.00
2023-02-27T00:02:07.465Z,21.00
2023-02-27T00:02:39.800Z,20.33
2023-02-27T00:03:12.135Z,20.00
2023-02-27T00:03:44.562Z,19.33
2023-02-27T00:04:16.949Z,19.00
2023-02-27T00:04:50.233Z,19.00
2023-02-27T00:05:22.974Z,19.00
2023-02-27T00:05:56.442Z,20.00
2023-02-27T00:06:29.193Z,20.00
2023-02-27T00:07:01.505Z,20.00
2023-02-27T00:07:33.767Z,20.00
2023-02-27T00:08:06.087Z,20.00
2023-02-27T00:08:38.408Z,20.00
2023-02-27T00:09:10.803Z,20.00
2023-02-27T00:09:43.180Z,20.00
2023-02-27T00:10:15.907Z,20.00
2023-02-27T00:10:48.227Z,20.67
2023-02-27T00:11:20.653Z,20.00
2023-02-27T00:11:52.945Z,20.00
2023-02-27T00:12:25.226Z,20.00
2023-02-27T00:12:57.826Z,20.00
2023-02-27T00:13:30.233Z,20.00
2023-02-27T00:14:02.623Z,20.00
2023-02-27T00:14:35.135Z,20.00
2023-02-27T00:15:16.827Z,20.00
2023-02-27T00:15:52.048Z,20.00
2023-02-27T00:16:24.439Z,20.00
2023-02-27T00:16:56.776Z,20.00
2023-02-27T00:17:29.769Z,20.00
2023-02-27T00:18:02.152Z,20.00
2023-02-27T00:18:34.645Z,20.00
2023-02-27T00:19:07.024Z,20.00
2023-02-27T00:19:39.296Z,20.00
2023-02-27T00:20:15.200Z,20.00
2023-02-27T00:20:48.549Z,19.67
2023-02-27T00:21:21.086Z,19.00
2023-02-27T00:21:53.365Z,19.00
2023-02-27T00:22:25.777Z,19.00
2023-02-27T00:22:58.089Z,19.00
2023-02-27T00:23:30.356Z,19.00
2023-02-27T00:24:02.629Z,19.00
2023-02-27T00:24:35.057Z,19.00
2023-02-27T00:25:08.842Z,19.00
2023-02-27T00:25:41.557Z,19.00
2023-02-27T00:26:13.932Z,19.00
2023-02-27T00:26:46.229Z,18.33
2023-02-27T00:27:18.746Z,18.00
2023-02-27T00:27:51.015Z,18.00
2023-02-27T00:28:23.577Z,18.00
2023-02-27T00:28:55.899Z,17.67
2023-02-27T00:29:28.887Z,17.00
2023-02-27T00:30:01.690Z,17.00
2023-02-27T00:30:34.282Z,17.00
2023-02-27T00:31:06.697Z,17.00
2023-02-27T00:31:39.176Z,17.00
2023-02-27T00:32:11.546Z,17.00
2023-02-27T00:32:44.232Z,17.00
2023-02-27T00:33:17.579Z,17.00
2023-02-27T00:33:49.912Z,17.00
2023-02-27T00:34:22.194Z,17.00
2023-02-27T00:34:54.553Z,17.00
2023-02-27T00:35:26.852Z,17.00
2023-02-27T00:36:01.210Z,17.00
2023-02-27T00:36:33.490Z,16.33
2023-02-27T00:37:05.814Z,16.33
2023-02-27T00:37:39.072Z,16.00
2023-02-27T00:38:11.403Z,16.00
2023-02-27T00:38:43.794Z,16.00
2023-02-27T00:39:16.076Z,16.00
2023-02-27T00:39:48.419Z,16.00
2023-02-27T00:40:20.940Z,16.00
2023-02-27T00:40:53.342Z,16.00
2023-02-27T00:41:25.877Z,16.00
2023-02-27T00:41:58.326Z,16.00
2023-02-27T00:42:31.253Z,16.00
2023-02-27T00:43:04.024Z,16.00
2023-02-27T00:43:36.332Z,16.00
2023-02-27T00:44:08.818Z,16.00
2023-02-27T00:44:41.324Z,16.00
2023-02-27T00:45:13.728Z,16.00
2023-02-27T00:45:46.006Z,15.00
2023-02-27T00:46:19.711Z,15.00
2023-02-27T00:46:52.147Z,15.00
2023-02-27T00:47:24.639Z,15.00
2023-02-27T00:47:56.908Z,15.00
2023-02-27T00:48:29.204Z,15.00
2023-02-27T00:49:01.458Z,15.00
2023-02-27T00:49:33.928Z,15.00
2023-02-27T00:50:06.433Z,15.33
2023-02-27T00:50:38.801Z,16.00
2023-02-27T00:51:11.142Z,16.00
2023-02-27T00:51:43.416Z,15.67
2023-02-27T00:52:15.830Z,15.00
2023-02-27T00:52:48.253Z,15.00
2023-02-27T00:53:20.655Z,15.00
2023-02-27T00:53:52.937Z,15.00
2023-02-27T00:54:25.304Z,15.00
2023-02-27T00:54:57.701Z,14.00
2023-02-27T00:55:30.060Z,14.00
2023-02-27T00:56:02.476Z,14.00
2023-02-27T00:56:35.223Z,14.00
2023-02-27T00:57:07.534Z,14.00
2023-02-27T00:57:40.477Z,14.00
2023-02-27T00:58:12.914Z,14.00
2023-02-27T00:58:45.232Z,14.00
2023-02-27T00:59:17.703Z,13.33
2023-02-27T00:59:50.015Z,13.00
2023-02-27T01:00:22.965Z,13.00
2023-02-27T01:00:55.268Z,13.00
2023-02-27T01:01:27.928Z,13.00
2023-02-27T01:02:00.413Z,13.00
2023-02-27T01:02:32.894Z,13.00
2023-02-27T01:03:05.281Z,13.00
2023-02-27T01:03:37.763Z,13.00
2023-02-27T01:04:10.612Z,13.00
2023-02-27T01:04:42.925Z,13.00
2023-02-27T01:05:15.736Z,13.00
2023-02-27T01:05:48.014Z,13.00
2023-02-27T01:06:20.301Z,13.00
2023-02-27T01:06:52.657Z,13.00
2023-02-27T01:07:24.927Z,13.00
2023-02-27T01:07:57.226Z,13.00
2023-02-27T01:08:29.528Z,13.00
2023-02-27T01:09:02.359Z,13.00
2023-02-27T01:09:34.781Z,13.00
2023-02-27T01:10:08.955Z,13.00
2023-02-27T01:10:41.227Z,13.00
2023-02-27T01:11:13.525Z,13.00
2023-02-27T01:11:45.804Z,13.00
2023-02-27T01:12:18.084Z,13.00
2023-02-27T01:12:50.432Z,13.00
2023-02-27T01:13:23.028Z,13.00
2023-02-27T01:13:55.324Z,13.00
2023-02-27T01:14:28.054Z,13.67
2023-02-27T01:15:00.320Z,14.00
2023-02-27T01:15:32.606Z,14.00
2023-02-27T01:16:05.173Z,14.00
2023-02-27T01:16:37.583Z,14.00
2023-02-27T01:17:10.243Z,14.00
2023-02-27T01:17:42.661Z,14.00
2023-02-27T01:18:14.966Z,14.00
2023-02-27T01:18:47.349Z,14.00
2023-02-27T01:19:19.670Z,14.00
2023-02-27T01:19:52.006Z,14.00
2023-02-27T01:20:24.283Z,14.00
2023-02-27T01:20:56.769Z,14.00
2023-02-27T01:21:29.238Z,14.00
2023-02-27T01:22:01.671Z,14.00
2023-02-27T01:22:34.782Z,14.00
2023-02-27T01:23:07.060Z,14.00
2023-02-27T01:23:39.385Z,14.00
2023-02-27T01:24:13.223Z,14.00
2023-02-27T01:24:45.502Z,14.00
2023-02-27T01:25:17.847Z,14.00
2023-02-27T01:25:50.800Z,14.00
2023-02-27T01:26:23.084Z,14.00
2023-02-27T01:26:55.410Z,14.00
2023-02-27T01:27:27.779Z,14.00
2023-02-27T01:28:00.431Z,14.00
2023-02-27T01:28:32.734Z,14.00
2023-02-27T01:29:06.500Z,14.00
2023-02-27T01:29:39.104Z,14.00
2023-02-27T01:30:12.613Z,14.00
2023-02-27T01:30:44.943Z,15.33
2023-02-27T01:31:17.589Z,25.67
2023-02-27T01:31:50.006Z,43.33
2023-02-27T01:32:22.708Z,48.33
2023-02-27T01:32:55.072Z,56.33
2023-02-27T01:33:27.877Z,67.67
2023-02-27T01:34:00.515Z,55.33
2023-02-27T01:34:34.231Z,46.33
2023-02-27T01:35:08.908Z,50.33
2023-02-27T01:35:41.534Z,50.33
2023-02-27T01:36:13.816Z,46.00
2023-02-27T01:36:46.113Z,44.00
2023-02-27T01:37:19.084Z,43.33
2023-02-27T01:38:11.664Z,42.00
2023-02-27T01:39:04.835Z,38.33
2023-02-27T01:39:37.186Z,31.67
2023-02-27T01:40:09.932Z,26.33
2023-02-27T01:40:43.545Z,22.00
2023-02-27T01:41:15.941Z,18.33
2023-02-27T01:41:48.898Z,16.33
2023-02-27T01:42:26.764Z,15.00
2023-02-27T01:42:59.088Z,14.00
2023-02-27T01:43:31.399Z,14.00
2023-02-27T01:44:14.832Z,13.33
2023-02-27T01:45:12.184Z,13.00
2023-02-27T01:45:49.380Z,13.00
2023-02-27T01:46:21.797Z,13.00
2023-02-27T01:46:54.129Z,13.00
2023-02-27T01:47:26.487Z,13.00
2023-02-27T01:48:30.904Z,13.00
2023-02-27T01:49:09.656Z,13.00
2023-02-27T01:49:42.080Z,13.00
2023-02-27T01:50:15.904Z,13.00
2023-02-27T01:51:15.683Z,13.00
2023-02-27T01:52:03.171Z,13.00
2023-02-27T01:52:38.718Z,13.00
2023-02-27T01:53:11.480Z,13.00
2023-02-27T01:53:48.219Z,13.00
2023-02-27T01:54:24.582Z,13.00
2023-02-27T01:54:57.616Z,14.00
2023-02-27T01:55:33.883Z,14.00
2023-02-27T01:56:12.544Z,14.00
2023-02-27T01:56:45.295Z,14.00
2023-02-27T01:57:17.586Z,14.00
2023-02-27T01:57:51.122Z,14.00
2023-02-27T01:58:23.739Z,14.00
2023-02-27T01:59:03.620Z,14.00
2023-02-27T01:59:38.626Z,14.00
2023-02-27T02:00:11.399Z,14.00
2023-02-27T02:00:43.910Z,14.00
2023-02-27T02:01:16.980Z,14.00
2023-02-27T02:01:49.983Z,14.00
2023-02-27T02:02:27.768Z,14.00
2023-02-27T02:03:06.776Z,14.00
2023-02-27T02:03:50.888Z,14.00
2023-02-27T02:04:33.693Z,14.00
2023-02-27T02:05:07.822Z,14.00
2023-02-27T02:05:40.432Z,14.00
2023-02-27T02:06:12.994Z,14.00
2023-02-27T02:06:54.010Z,14.00
2023-02-27T02:07:28.502Z,14.00
2023-02-27T02:08:01.401Z,14.33
2023-02-27T02:08:39.640Z,15.00
2023-02-27T02:09:15.481Z,15.00
2023-02-27T02:09:54.663Z,15.00
2023-02-27T02:10:28.162Z,15.00
2023-02-27T02:11:00.999Z,15.00
2023-02-27T02:11:33.569Z,15.00
2023-02-27T02:12:06.311Z,15.00
2023-02-27T02:12:39.285Z,15.00
2023-02-27T02:13:11.672Z,15.00
2023-02-27T02:13:44.193Z,15.00
2023-02-27T02:14:16.541Z,15.00
2023-02-27T02:14:48.822Z,15.00
2023-02-27T02:15:32.028Z,15.00
2023-02-27T02:16:48.568Z,15.00
2023-02-27T02:17:46.635Z,15.00
2023-02-27T02:18:42.314Z,15.67
2023-02-27T02:19:33.240Z,16.00
2023-02-27T02:20:29.893Z,16.00
2023-02-27T02:21:17.254Z,15.00
2023-02-27T02:22:13.628Z,15.00
2023-02-27T02:23:10.258Z,15.00
2023-02-27T02:24:16.572Z,15.00
2023-02-27T02:25:25.925Z,15.33
2023-02-27T02:26:44.040Z,16.00
2023-02-27T02:27:25.480Z,16.00
2023-02-27T02:28:22.175Z,16.00
2023-02-27T02:29:13.229Z,16.00
2023-02-27T02:30:13.376Z,16.00
2023-02-27T02:31:03.550Z,15.33
2023-02-27T02:31:35.966Z,15.00
2023-02-27T02:32:42.429Z,15.00
2023-02-27T02:33:39.610Z,15.00
2023-02-27T02:34:33.559Z,15.00
2023-02-27T02:35:38.479Z,15.00
2023-02-27T02:36:19.731Z,15.00
2023-02-27T02:37:14.545Z,15.00
2023-02-27T02:38:08.308Z,15.00
2023-02-27T02:39:02.980Z,15.00
2023-02-27T02:39:50.420Z,15.00
2023-02-27T02:40:37.930Z,15.67
2023-02-27T02:41:20.411Z,17.33
2023-02-27T02:42:23.648Z,19.33
2023-02-27T02:43:21.734Z,27.33
2023-02-27T02:44:12.248Z,37.33
2023-02-27T02:45:02.708Z,33.67
2023-02-27T02:46:04.319Z,31.67
2023-02-27T02:46:53.631Z,30.00
2023-02-27T02:48:11.163Z,27.67
2023-02-27T02:48:55.282Z,24.33
2023-02-27T02:49:38.316Z,23.00
2023-02-27T02:50:35.123Z,22.33
2023-02-27T02:51:20.376Z,22.00
2023-02-27T02:52:00.868Z,22.00
2023-02-27T02:52:43.977Z,21.00
2023-02-27T02:53:37.597Z,21.00
2023-02-27T02:54:41.007Z,20.00
2023-02-27T02:55:17.107Z,19.00
2023-02-27T02:56:05.874Z,19.00
2023-02-27T02:56:53.974Z,19.00
2023-02-27T02:57:43.856Z,35.33
2023-02-27T02:58:32.736Z,80.33
2023-02-27T02:59:18.249Z,75.33
2023-02-27T03:00:00.747Z,59.33
2023-02-27T03:00:39.404Z,50.33
2023-02-27T03:01:25.307Z,46.67
2023-02-27T03:02:05.188Z,43.33
2023-02-27T03:02:48.107Z,36.67
2023-02-27T03:03:27.983Z,28.67
2023-02-27T03:04:14.410Z,23.00
2023-02-27T03:04:58.010Z,19.67
2023-02-27T03:05:42.054Z,19.67
2023-02-27T03:06:27.799Z,20.00
2023-02-27T03:07:11.975Z,20.00
2023-02-27T03:07:53.891Z,20.00
2023-02-27T03:08:30.923Z,20.00
2023-02-27T03:09:10.069Z,19.00
2023-02-27T03:09:55.402Z,19.00
2023-02-27T03:10:43.512Z,18.00
2023-02-27T03:11:15.892Z,18.00
2023-02-27T03:11:52.829Z,18.00
2023-02-27T03:12:29.306Z,17.00
2023-02-27T03:13:14.527Z,17.00
2023-02-27T03:13:53.056Z,17.00
2023-02-27T03:14:44.295Z,17.00
2023-02-27T03:15:44.968Z,17.00
2023-02-27T03:16:42.044Z,17.00
2023-02-27T03:17:43.545Z,17.00
2023-02-27T03:18:28.191Z,17.00
2023-02-27T03:19:13.664Z,17.00
2023-02-27T03:20:05.867Z,17.00
2023-02-27T03:20:42.964Z,17.00
2023-02-27T03:21:25.488Z,17.00
2023-02-27T03:22:17.802Z,18.00
2023-02-27T03:22:55.964Z,18.00
2023-02-27T03:23:34.738Z,18.00
2023-02-27T03:24:12.944Z,18.00
2023-02-27T03:24:54.008Z,18.00
2023-02-27T03:25:28.752Z,18.00
2023-02-27T03:26:02.782Z,18.00
2023-02-27T03:26:42.524Z,18.00
2023-02-27T03:27:19.058Z,18.33
2023-02-27T03:28:00.114Z,19.00
2023-02-27T03:28:38.224Z,19.00
2023-02-27T03:29:19.320Z,19.00
2023-02-27T03:30:10.417Z,19.33
2023-02-27T03:30:55.828Z,20.00
2023-02-27T03:31:58.332Z,20.00
2023-02-27T03:32:49.512Z,21.33
2023-02-27T03:33:29.193Z,23.67
2023-02-27T03:34:15.887Z,24.00
2023-02-27T03:34:48.426Z,26.00
2023-02-27T03:35:20.692Z,30.33
2023-02-27T03:36:27.537Z,35.67
2023-02-27T03:37:21.585Z,36.67
2023-02-27T03:38:29.516Z,35.00
2023-02-27T03:39:18.679Z,33.00
2023-02-27T03:40:09.937Z,32.00
2023-02-27T03:40:53.821Z,32.00
2023-02-27T03:41:45.695Z,31.00
2023-02-27T03:42:36.049Z,29.67
2023-02-27T03:43:33.220Z,28.33
2023-02-27T03:44:38.059Z,26.67
2023-02-27T03:45:18.533Z,25.33
2023-02-27T03:45:50.743Z,25.00
2023-02-27T03:46:26.923Z,24.33
2023-02-27T03:46:59.779Z,24.00
2023-02-27T03:47:34.198Z,24.00
2023-02-27T03:48:09.107Z,24.00
2023-02-27T03:48:44.673Z,26.33
2023-02-27T03:49:17.262Z,31.67
2023-02-27T03:49:53.004Z,32.00
2023-02-27T03:50:25.367Z,31.67
2023-02-27T03:50:57.692Z,31.00
2023-02-27T03:51:31.617Z,31.00
2023-02-27T03:52:03.983Z,30.67
2023-02-27T03:52:36.446Z,30.00
2023-02-27T03:53:44.040Z,30.00
2023-02-27T03:54:22.632Z,28.00
2023-02-27T03:55:10.495Z,27.00
2023-02-27T03:55:46.995Z,26.00
2023-02-27T03:56:38.054Z,25.00
2023-02-27T03:57:11.731Z,24.33
2023-02-27T03:57:46.826Z,24.00
2023-02-27T03:58:19.459Z,24.00
2023-02-27T03:58:52.539Z,23.33
2023-02-27T03:59:26.630Z,23.00
2023-02-27T03:59:59.413Z,23.00
2023-02-27T04:00:32.082Z,23.00
2023-02-27T04:01:04.750Z,22.00
2023-02-27T04:01:37.697Z,22.00
2023-02-27T04:02:10.220Z,22.00
2023-02-27T04:02:44.827Z,21.33
2023-02-27T04:03:17.634Z,21.00
2023-02-27T04:03:57.889Z,21.67
2023-02-27T04:04:32.036Z,22.00
2023-02-27T04:05:04.493Z,22.00
2023-02-27T04:05:37.256Z,22.00
2023-02-27T04:06:28.431Z,22.00
2023-02-27T04:07:24.365Z,22.00
2023-02-27T04:08:18.955Z,22.67
2023-02-27T04:09:05.603Z,24.00
2023-02-27T04:10:15.752Z,24.00
2023-02-27T04:11:20.299Z,24.00
2023-02-27T04:12:11.943Z,24.00
2023-02-27T04:12:46.936Z,24.00
2023-02-27T04:13:19.187Z,23.67
2023-02-27T04:14:23.549Z,23.00
2023-02-27T04:15:07.475Z,23.00
2023-02-27T04:16:30.264Z,22.33
2023-02-27T04:17:37.697Z,23.00
2023-02-27T04:18:27.651Z,23.00
2023-02-27T04:19:05.923Z,23.00
2023-02-27T04:19:54.406Z,23.00
2023-02-27T04:20:36.536Z,23.00
2023-02-27T04:21:24.297Z,23.00
2023-02-27T04:22:11.071Z,23.00
2023-02-27T04:22:43.279Z,23.00
2023-02-27T04:23:30.726Z,23.00
2023-02-27T04:24:23.833Z,23.00
2023-02-27T04:25:35.366Z,24.00
2023-02-27T04:26:20.768Z,24.00
2023-02-27T04:27:06.971Z,24.67
2023-02-27T04:27:51.196Z,25.00
2023-02-27T04:28:47.391Z,27.67
2023-02-27T04:29:46.325Z,62.67
2023-02-27T04:30:37.042Z,51.33
2023-02-27T04:31:15.352Z,45.00
2023-02-27T04:32:00.995Z,43.67
2023-02-27T04:32:41.757Z,42.67
2023-02-27T04:33:44.462Z,56.00
2023-02-27T04:34:43.360Z,139.33
2023-02-27T04:35:31.729Z,95.67
2023-02-27T04:36:14.284Z,74.67
2023-02-27T04:36:59.081Z,69.00
2023-02-27T04:37:47.614Z,67.00
2023-02-27T04:38:28.069Z,63.33
2023-02-27T04:39:09.430Z,56.00
2023-02-27T04:39:51.971Z,51.33
2023-02-27T04:40:32.696Z,51.33
2023-02-27T04:41:15.665Z,75.67
2023-02-27T04:41:57.080Z,78.00
2023-02-27T04:42:37.614Z,72.00
2023-02-27T04:43:14.950Z,69.33
2023-02-27T04:43:49.872Z,69.00
2023-02-27T04:44:25.263Z,73.67
2023-02-27T04:45:01.402Z,83.00
2023-02-27T04:45:38.521Z,76.00
2023-02-27T04:46:15.417Z,70.67
2023-02-27T04:46:50.348Z,60.00
2023-02-27T04:47:25.310Z,52.00
2023-02-27T04:48:13.259Z,48.00
2023-02-27T04:49:11.111Z,42.33
2023-02-27T04:49:54.430Z,40.33
2023-02-27T04:50:35.709Z,42.33
2023-02-27T04:51:15.518Z,44.00
2023-02-27T04:52:00.595Z,48.00
2023-02-27T04:53:03.633Z,58.67
2023-02-27T04:54:01.807Z,66.00
2023-02-27T04:54:45.447Z,75.00
2023-02-27T04:55:27.212Z,98.33
2023-02-27T04:56:07.162Z,114.33
2023-02-27T04:56:47.717Z,134.33
2023-02-27T04:57:32.920Z,142.67
2023-02-27T04:58:13.358Z,139.33
2023-02-27T04:58:50.945Z,147.33
2023-02-27T04:59:28.475Z,159.67
2023-02-27T05:00:06.697Z,185.33
2023-02-27T05:00:43.003Z,213.33
2023-02-27T05:01:19.896Z,218.67
2023-02-27T05:02:03.324Z,209.00
2023-02-27T05:02:44.068Z,194.00
2023-02-27T05:03:22.168Z,167.33
2023-02-27T05:03:58.344Z,152.33
2023-02-27T05:04:37.176Z,145.00
2023-02-27T05:05:16.392Z,120.67
2023-02-27T05:05:52.242Z,114.33
2023-02-27T05:06:32.016Z,116.00
2023-02-27T05:07:09.480Z,116.00
2023-02-27T05:07:51.807Z,110.67
2023-02-27T05:08:49.857Z,100.33
2023-02-27T05:09:46.612Z,95.00
2023-02-27T05:10:30.664Z,88.33
2023-02-27T05:11:20.567Z,96.00
2023-02-27T05:12:20.161Z,99.67
2023-02-27T05:12:59.515Z,96.00
2023-02-27T05:13:38.035Z,126.00
2023-02-27T05:14:15.687Z,200.67
2023-02-27T05:15:05.716Z,269.33
2023-02-27T05:15:48.642Z,370.33
2023-02-27T05:16:28.301Z,377.33
2023-02-27T05:17:11.782Z,320.33
2023-02-27T05:17:59.691Z,223.67
2023-02-27T05:18:32.428Z,225.00
2023-02-27T05:19:06.187Z,246.00
2023-02-27T05:19:42.597Z,233.33
2023-02-27T05:20:17.086Z,216.33
2023-02-27T05:21:01.528Z,242.33
2023-02-27T05:21:51.004Z,195.67
2023-02-27T05:22:39.990Z,126.67
2023-02-27T05:23:25.443Z,89.67
2023-02-27T05:24:14.230Z,71.67
2023-02-27T05:25:02.282Z,62.00
2023-02-27T05:25:45.543Z,50.67
2023-02-27T05:27:25.633Z,47.67
2023-02-27T05:28:09.350Z,41.00
2023-02-27T05:28:52.300Z,41.00
2023-02-27T05:29:49.508Z,42.00
2023-02-27T05:30:40.662Z,39.67
2023-02-27T05:31:12.928Z,45.67
2023-02-27T05:31:56.902Z,46.67
2023-02-27T05:32:40.814Z,43.67
2023-02-27T05:33:21.049Z,46.67
2023-02-27T05:34:23.126Z,50.33
2023-02-27T05:35:09.054Z,69.00
2023-02-27T05:35:54.069Z,67.00
2023-02-27T05:36:36.712Z,49.67
2023-02-27T05:37:16.854Z,40.67
2023-02-27T05:38:16.877Z,36.67
2023-02-27T05:39:10.361Z,35.00
2023-02-27T05:39:47.352Z,35.67
2023-02-27T05:40:26.677Z,37.00
2023-02-27T05:41:09.243Z,35.33
2023-02-27T05:41:48.699Z,36.00
2023-02-27T05:42:30.993Z,37.67
2023-02-27T05:43:10.068Z,39.33
2023-02-27T05:43:53.832Z,40.00
2023-02-27T05:44:31.179Z,41.33
2023-02-27T05:45:11.345Z,42.00
2023-02-27T05:45:48.356Z,41.00
2023-02-27T05:46:27.086Z,39.67
2023-02-27T05:47:07.560Z,37.33
2023-02-27T05:47:47.797Z,36.00
2023-02-27T05:48:34.002Z,34.33
2023-02-27T05:49:14.480Z,33.00
2023-02-27T05:50:24.986Z,32.00
2023-02-27T05:50:59.606Z,33.00
2023-02-27T05:51:35.658Z,33.00
2023-02-27T05:52:13.217Z,33.00
2023-02-27T05:52:49.081Z,33.00
2023-02-27T05:53:25.823Z,33.00
2023-02-27T05:54:03.892Z,33.33
2023-02-27T05:55:01.059Z,34.00
2023-02-27T05:55:44.021Z,35.00
2023-02-27T05:56:19.935Z,35.00
2023-02-27T05:56:57.336Z,35.67
2023-02-27T05:57:39.057Z,36.67
2023-02-27T05:58:21.168Z,37.00
2023-02-27T05:59:04.099Z,38.00
2023-02-27T05:59:45.814Z,38.00
2023-02-27T06:00:34.188Z,38.67
2023-02-27T06:01:10.693Z,40.33
2023-02-27T06:01:45.829Z,43.00
2023-02-27T06:02:18.667Z,48.00
2023-02-27T06:02:51.064Z,54.33
2023-02-27T06:03:23.577Z,57.67
2023-02-27T06:03:56.335Z,59.33
2023-02-27T06:04:28.922Z,60.00
2023-02-27T06:05:01.539Z,59.33
2023-02-27T06:05:34.157Z,58.00
2023-02-27T06:06:11.596Z,57.00
2023-02-27T06:06:44.718Z,56.00
2023-02-27T06:07:17.032Z,56.00
2023-02-27T06:07:49.340Z,55.00
2023-02-27T06:08:22.482Z,55.00
2023-02-27T06:08:55.185Z,55.00
2023-02-27T06:09:27.437Z,54.67
2023-02-27T06:10:00.013Z,54.00
2023-02-27T06:10:32.567Z,54.00
2023-02-27T06:11:05.070Z,54.00
2023-02-27T06:11:37.346Z,53.33
2023-02-27T06:12:09.602Z,53.00
2023-02-27T06:12:42.278Z,52.33
2023-02-27T06:13:14.547Z,52.00
2023-02-27T06:13:46.843Z,52.00
2023-02-27T06:14:19.119Z,52.33
2023-02-27T06:14:51.829Z,54.00
2023-02-27T06:15:24.154Z,61.00
2023-02-27T06:15:56.427Z,68.67
2023-02-27T06:16:29.235Z,70.00
2023-02-27T06:17:02.500Z,69.67
2023-02-27T06:17:34.870Z,71.67
2023-02-27T06:18:07.146Z,72.67
2023-02-27T06:18:39.498Z,70.33
2023-02-27T06:19:11.794Z,68.67
2023-02-27T06:19:44.187Z,68.00
2023-02-27T06:20:16.632Z,68.00
2023-02-27T06:20:49.934Z,67.00
2023-02-27T06:21:22.292Z,66.33
2023-02-27T06:21:54.588Z,65.00
2023-02-27T06:22:26.865Z,63.00
2023-02-27T06:22:59.260Z,60.33
2023-02-27T06:23:31.556Z,60.00
2023-02-27T06:24:03.955Z,60.00
2023-02-27T06:24:36.331Z,60.00
2023-02-27T06:25:09.080Z,60.00
2023-02-27T06:25:42.359Z,60.00
2023-02-27T06:26:15.728Z,60.67
2023-02-27T06:26:48.020Z,61.67
2023-02-27T06:27:20.288Z,64.67
2023-02-27T06:27:52.613Z,67.67
2023-02-27T06:28:25.000Z,90.33
2023-02-27T06:28:57.367Z,116.67
2023-02-27T06:29:30.166Z,125.67
2023-02-27T06:30:02.918Z,116.67
2023-02-27T06:30:35.907Z,100.00
2023-02-27T06:31:08.390Z,100.67
2023-02-27T06:31:40.713Z,105.00
2023-02-27T06:32:12.993Z,111.00
2023-02-27T06:32:45.464Z,114.67
2023-02-27T06:33:17.814Z,118.33
2023-02-27T06:33:50.454Z,115.33
2023-02-27T06:34:22.841Z,133.67
2023-02-27T06:34:55.267Z,164.00
2023-02-27T06:35:29.289Z,166.33
2023-02-27T06:36:01.674Z,155.33
2023-02-27T06:36:33.982Z,129.00
2023-02-27T06:37:06.275Z,119.00
2023-02-27T06:37:38.947Z,117.33
2023-02-27T06:38:11.224Z,117.00
2023-02-27T06:38:43.881Z,115.00
2023-02-27T06:39:16.778Z,111.00
2023-02-27T06:39:49.118Z,107.33
2023-02-27T06:40:21.772Z,112.00
2023-02-27T06:40:54.024Z,160.00
2023-02-27T06:41:28.248Z,174.33
2023-02-27T06:42:00.551Z,175.33
2023-02-27T06:42:32.988Z,172.00
2023-02-27T06:43:05.437Z,165.33
2023-02-27T06:43:37.887Z,170.33
2023-02-27T06:44:10.205Z,166.00
2023-02-27T06:44:42.636Z,169.33
2023-02-27T06:45:16.493Z,205.00
2023-02-27T06:45:49.766Z,209.33
2023-02-27T06:46:22.394Z,180.33
2023-02-27T06:46:54.877Z,160.67
2023-02-27T06:47:28.190Z,153.00
2023-02-27T06:48:00.493Z,133.67
2023-02-27T06:48:33.441Z,121.00
2023-02-27T06:49:05.848Z,116.33
2023-02-27T06:49:38.272Z,112.67
2023-02-27T06:50:13.889Z,111.67
2023-02-27T06:50:46.192Z,107.67
2023-02-27T06:51:18.512Z,106.33
2023-02-27T06:51:50.881Z,115.33
2023-02-27T06:52:23.618Z,117.67
2023-02-27T06:52:55.936Z,118.33
2023-02-27T06:53:28.217Z,117.33
2023-02-27T06:54:00.520Z,108.00
2023-02-27T06:54:36.277Z,96.67
2023-02-27T06:55:09.874Z,95.67
2023-02-27T06:55:42.644Z,99.67
2023-02-27T06:56:15.546Z,100.33
2023-02-27T06:56:48.331Z,102.67
2023-02-27T06:57:20.955Z,101.00
2023-02-27T06:57:53.311Z,103.67
2023-02-27T06:58:26.067Z,99.67
2023-02-27T06:58:59.578Z,89.67
2023-02-27T06:59:32.318Z,88.00
2023-02-27T07:00:07.254Z,86.67
2023-02-27T07:00:39.513Z,91.00
2023-02-27T07:01:13.540Z,96.33
2023-02-27T07:01:45.975Z,97.00
2023-02-27T07:02:18.403Z,95.67
2023-02-27T07:02:50.764Z,92.67
2023-02-27T07:03:23.065Z,90.00
2023-02-27T07:03:55.785Z,83.33
2023-02-27T07:04:28.195Z,79.00
2023-02-27T07:05:00.942Z,77.00
2023-02-27T07:05:41.907Z,67.33
2023-02-27T07:06:14.261Z,68.33
2023-02-27T07:07:32.696Z,64.67
2023-02-27T07:07:40.175Z,56.33
2023-02-27T07:08:12.520Z,51.67
2023-02-27T07:09:01.638Z,49.67
2023-02-27T07:09:38.020Z,60.33
2023-02-27T07:10:13.665Z,67.33
2023-02-27T07:10:47.192Z,76.67
2023-02-27T07:11:19.559Z,97.33
2023-02-27T07:11:52.116Z,96.67
2023-02-27T07:12:24.410Z,89.00
2023-02-27T07:12:56.755Z,71.67
2023-02-27T07:13:29.070Z,62.33
2023-02-27T07:14:01.610Z,60.00
2023-02-27T07:14:33.921Z,57.33
2023-02-27T07:15:07.598Z,55.33
2023-02-27T07:15:40.562Z,55.33
2023-02-27T07:16:12.918Z,55.33
2023-02-27T07:16:47.160Z,59.00
2023-02-27T07:17:19.557Z,63.33
2023-02-27T07:17:51.866Z,80.33
2023-02-27T07:18:25.621Z,81.67
2023-02-27T07:18:58.983Z,81.00
2023-02-27T07:19:33.648Z,81.00
2023-02-27T07:20:09.007Z,80.33
2023-02-27T07:20:41.385Z,79.67
2023-02-27T07:21:15.296Z,75.67
2023-02-27T07:21:47.599Z,67.00
2023-02-27T07:22:20.038Z,65.33
2023-02-27T07:22:54.898Z,66.67
2023-02-27T07:23:27.169Z,67.00
2023-02-27T07:23:59.675Z,68.00
2023-02-27T07:24:31.994Z,67.00
2023-02-27T07:25:05.362Z,67.00
2023-02-27T07:25:37.693Z,67.00
2023-02-27T07:26:10.235Z,65.33
2023-02-27T07:26:43.019Z,65.00
2023-02-27T07:27:15.317Z,65.00
2023-02-27T07:27:49.731Z,65.33
2023-02-27T07:28:22.477Z,67.00
2023-02-27T07:28:55.062Z,72.67
2023-02-27T07:29:27.495Z,77.33
2023-02-27T07:30:01.193Z,83.67
2023-02-27T07:30:33.703Z,84.33
2023-02-27T07:31:06.020Z,83.00
2023-02-27T07:31:38.431Z,81.67
2023-02-27T07:32:11.444Z,83.33
2023-02-27T07:32:44.052Z,182.00
2023-02-27T07:33:16.318Z,177.33
2023-02-27T07:33:48.564Z,131.33
2023-02-27T07:34:21.176Z,113.67
2023-02-27T07:34:55.101Z,111.00
2023-02-27T07:35:30.939Z,106.33
2023-02-27T07:36:03.537Z,111.33
2023-02-27T07:36:36.030Z,133.00
2023-02-27T07:37:08.935Z,152.67
2023-02-27T07:37:44.148Z,176.67
2023-02-27T07:38:16.509Z,172.33
2023-02-27T07:38:48.872Z,159.00
2023-02-27T07:39:21.247Z,155.33
2023-02-27T07:39:53.599Z,159.67
2023-02-27T07:40:25.946Z,150.00
2023-02-27T07:40:59.117Z,154.67
2023-02-27T07:41:31.408Z,141.67
2023-02-27T07:42:03.835Z,139.33
2023-02-27T07:42:36.301Z,147.00
2023-02-27T07:43:08.708Z,155.00
2023-02-27T07:43:42.913Z,148.00
2023-02-27T07:44:15.525Z,145.00
2023-02-27T07:44:47.836Z,141.33
2023-02-27T07:45:20.156Z,129.33
2023-02-27T07:45:52.464Z,112.33
2023-02-27T07:46:27.658Z,86.33
2023-02-27T07:47:00.256Z,71.67
2023-02-27T07:47:32.783Z,67.33
2023-02-27T07:48:08.082Z,67.67
2023-02-27T07:48:43.255Z,72.67
2023-02-27T07:49:15.563Z,75.33
2023-02-27T07:49:47.914Z,82.00
2023-02-27T07:50:20.720Z,91.00
2023-02-27T07:50:53.214Z,92.67
2023-02-27T07:51:25.668Z,93.00
2023-02-27T07:51:57.927Z,94.00
2023-02-27T07:53:02.702Z,85.00
2023-02-27T07:53:35.253Z,72.00
2023-02-27T07:54:07.619Z,65.33
2023-02-27T07:54:40.009Z,63.00
2023-02-27T07:55:13.602Z,62.00
2023-02-27T07:55:46.121Z,63.67
2023-02-27T07:56:18.523Z,69.33
2023-02-27T07:56:52.324Z,75.00
2023-02-27T07:57:24.658Z,74.67
2023-02-27T07:57:57.402Z,67.67
2023-02-27T07:58:32.160Z,62.67
2023-02-27T07:59:04.703Z,63.67
2023-02-27T07:59:37.567Z,60.67
2023-02-27T08:00:10.826Z,58.00
2023-02-27T08:00:43.274Z,56.67
2023-02-27T08:01:24.654Z,54.00
2023-02-27T08:02:00.079Z,53.67
2023-02-27T08:02:33.293Z,57.00
2023-02-27T08:03:06.487Z,61.00
2023-02-27T08:03:40.133Z,63.00
2023-02-27T08:04:12.479Z,70.00
2023-02-27T08:04:47.031Z,78.67
2023-02-27T08:05:19.376Z,88.67
2023-02-27T08:05:52.097Z,124.00
2023-02-27T08:06:25.558Z,122.67
2023-02-27T08:06:58.127Z,128.33
2023-02-27T08:07:30.773Z,165.67
2023-02-27T08:08:03.451Z,143.33
2023-02-27T08:08:35.764Z,128.67